createdAt,value
2023-02-14T00:00:29.337Z,5.19
2023-02-14T00:02:57.119Z,5.16
2023-02-14T00:05:23.754Z,5.17
2023-02-14T00:07:50.475Z,5.24
2023-02-14T00:10:17.364Z,5.29
2023-02-14T00:12:43.879Z,5.36
2023-02-14T00:15:22.892Z,5.27
2023-02-14T00:17:54.734Z,5.14
2023-02-14T00:20:22.384Z,5.14
2023-02-14T00:22:49.216Z,5.05
2023-02-14T00:25:16.373Z,4.98
2023-02-14T00:27:42.937Z,4.95
2023-02-14T00:30:11.341Z,4.94
2023-02-14T00:32:42.065Z,4.93
2023-02-14T00:35:09.631Z,5.07
2023-02-14T00:37:36.170Z,5.01
2023-02-14T00:40:02.637Z,4.96
2023-02-14T00:42:29.235Z,4.95
2023-02-14T00:44:55.790Z,4.91
2023-02-14T00:47:22.323Z,4.90
2023-02-14T00:49:48.825Z,4.89
2023-02-14T00:52:15.377Z,4.84
2023-02-14T00:54:41.860Z,4.85
2023-02-14T00:57:08.340Z,4.87
2023-02-14T00:59:34.808Z,4.89
2023-02-14T01:02:01.284Z,4.87
2023-02-14T01:04:27.834Z,4.93
2023-02-14T01:06:54.258Z,4.86
2023-02-14T01:09:20.711Z,4.79
2023-02-14T01:11:48.706Z,4.80
2023-02-14T01:14:15.742Z,4.76
2023-02-14T01:16:42.232Z,4.64
2023-02-14T01:19:09.374Z,4.55
2023-02-14T01:21:36.339Z,4.51
2023-02-14T01:24:06.723Z,4.48
2023-02-14T01:26:33.892Z,4.47
2023-02-14T01:29:00.380Z,4.56
2023-02-14T01:31:33.708Z,4.50
2023-02-14T01:34:00.442Z,4.51
2023-02-14T01:36:38.792Z,4.60
2023-02-14T01:39:09.075Z,4.57
2023-02-14T01:41:37.841Z,4.48
2023-02-14T01:44:16.907Z,4.48
2023-02-14T01:46:45.369Z,4.56
2023-02-14T01:49:14.682Z,4.59
2023-02-14T01:51:47.026Z,4.61
2023-02-14T01:54:13.690Z,4.60
2023-02-14T01:56:49.251Z,4.47
2023-02-14T01:59:21.205Z,4.27
2023-02-14T02:01:50.121Z,4.19
2023-02-14T02:04:22.691Z,4.11
2023-02-14T02:06:55.434Z,4.07
2023-02-14T02:09:32.716Z,4.13
2023-02-14T02:11:59.520Z,4.07
2023-02-14T02:14:26.043Z,4.16
2023-02-14T02:17:36.898Z,4.15
2023-02-14T02:20:39.319Z,4.03
2023-02-14T02:23:24.529Z,3.96
2023-02-14T02:26:28.612Z,3.98
2023-02-14T02:29:19.985Z,3.85
2023-02-14T02:31:58.814Z,3.57
2023-02-14T02:34:25.356Z,3.49
2023-02-14T02:37:00.551Z,3.48
2023-02-14T02:39:35.819Z,3.51
2023-02-14T02:42:34.620Z,3.59
2023-02-14T02:45:22.035Z,3.60
2023-02-14T02:48:09.843Z,3.79
2023-02-14T02:51:02.628Z,3.88
2023-02-14T02:53:48.587Z,4.00
2023-02-14T02:56:41.250Z,3.90
2023-02-14T02:59:24.449Z,3.79
2023-02-14T03:01:58.444Z,3.73
2023-02-14T03:04:45.949Z,3.75
2023-02-14T03:07:31.570Z,3.69
2023-02-14T03:10:00.591Z,3.68
2023-02-14T03:12:30.183Z,3.66
2023-02-14T03:15:02.791Z,3.78
2023-02-14T03:17:54.244Z,3.77
2023-02-14T03:20:28.432Z,3.77
2023-02-14T03:23:17.484Z,3.72
2023-02-14T03:26:17.238Z,3.68
2023-02-14T03:29:15.761Z,3.63
2023-02-14T03:31:57.532Z,3.63
2023-02-14T03:34:33.181Z,3.67
2023-02-14T03:37:10.692Z,3.66
2023-02-14T03:39:39.776Z,3.62
2023-02-14T03:42:31.111Z,3.62
2023-02-14T03:45:00.402Z,3.70
2023-02-14T03:47:31.391Z,3.71
2023-02-14T03:50:13.311Z,3.70
2023-02-14T03:52:41.087Z,3.67
2023-02-14T03:55:09.451Z,3.48
2023-02-14T03:57:45.609Z,3.45
2023-02-14T04:00:12.958Z,3.53
2023-02-14T04:02:44.228Z,3.55
2023-02-14T04:05:21.388Z,3.58
2023-02-14T04:07:51.582Z,3.60
2023-02-14T04:10:19.819Z,3.65
2023-02-14T04:12:46.839Z,3.67
2023-02-14T04:15:14.501Z,3.66
2023-02-14T04:18:00.168Z,3.64
2023-02-14T04:20:27.441Z,3.69
2023-02-14T04:22:54.337Z,3.81
2023-02-14T04:25:21.844Z,3.74
2023-02-14T04:27:48.720Z,3.69
2023-02-14T04:30:17.896Z,3.74
2023-02-14T04:32:44.503Z,3.75
2023-02-14T04:35:11.030Z,3.83
2023-02-14T04:37:37.728Z,3.86
2023-02-14T04:40:04.749Z,4.08
2023-02-14T04:42:31.317Z,3.96
2023-02-14T04:44:57.970Z,3.89
2023-02-14T04:47:25.034Z,3.86
2023-02-14T04:49:51.604Z,3.93
2023-02-14T04:52:18.152Z,3.84
2023-02-14T04:54:44.615Z,3.82
2023-02-14T04:57:11.148Z,3.84
2023-02-14T04:59:37.611Z,3.72
2023-02-14T05:02:04.371Z,3.75
2023-02-14T05:04:30.904Z,3.82
2023-02-14T05:06:57.385Z,3.84
2023-02-14T05:09:23.950Z,3.95
2023-02-14T05:11:50.443Z,3.82
2023-02-14T05:14:16.898Z,3.80
2023-02-14T05:16:43.414Z,3.74
2023-02-14T05:19:09.949Z,3.78
2023-02-14T05:21:36.432Z,3.93
2023-02-14T05:24:02.958Z,3.95
2023-02-14T05:26:29.858Z,3.92
2023-02-14T05:28:56.629Z,3.87
2023-02-14T05:31:23.175Z,3.85
2023-02-14T05:33:49.866Z,3.77
2023-02-14T05:36:16.626Z,3.73
2023-02-14T05:38:43.065Z,3.73
2023-02-14T05:41:10.723Z,3.65
2023-02-14T05:43:37.274Z,3.69
2023-02-14T05:46:03.885Z,3.69
2023-02-14T05:48:30.877Z,3.69
2023-02-14T05:50:57.627Z,3.62
2023-02-14T05:53:24.344Z,3.62
2023-02-14T05:55:50.804Z,3.62
2023-02-14T05:58:17.320Z,3.59
2023-02-14T06:00:43.779Z,3.59
2023-02-14T06:03:10.256Z,3.55
2023-02-14T06:05:36.704Z,3.53
2023-02-14T06:08:03.324Z,3.34
2023-02-14T06:10:29.923Z,3.16
2023-02-14T06:12:56.759Z,3.10
2023-02-14T06:15:23.571Z,3.17
2023-02-14T06:17:57.631Z,3.15
2023-02-14T06:20:25.344Z,3.16
2023-02-14T06:22:53.292Z,3.16
2023-02-14T06:25:20.466Z,3.17
2023-02-14T06:27:49.286Z,3.21
2023-02-14T06:30:17.202Z,3.07
2023-02-14T06:32:43.746Z,3.02
2023-02-14T06:35:10.305Z,3.03
2023-02-14T06:37:38.611Z,3.05
2023-02-14T06:40:05.809Z,3.18
2023-02-14T06:42:32.297Z,3.19
2023-02-14T06:44:58.867Z,3.10
2023-02-14T06:47:25.388Z,3.10
2023-02-14T06:49:51.902Z,3.05
2023-02-14T06:52:18.443Z,3.04
2023-02-14T06:54:44.948Z,3.05
2023-02-14T06:57:11.502Z,2.98
2023-02-14T06:59:38.043Z,2.91
2023-02-14T07:02:04.513Z,2.79
2023-02-14T07:04:31.040Z,2.69
2023-02-14T07:06:58.275Z,2.72
2023-02-14T07:09:24.778Z,2.77
2023-02-14T07:11:51.477Z,2.87
2023-02-14T07:14:17.965Z,2.91
2023-02-14T07:16:44.410Z,2.92
2023-02-14T07:19:11.037Z,2.96
2023-02-14T07:21:37.592Z,2.97
2023-02-14T07:24:04.147Z,3.02
2023-02-14T07:26:30.642Z,3.19
2023-02-14T07:28:57.170Z,3.32
2023-02-14T07:31:23.899Z,3.31
2023-02-14T07:33:51.923Z,3.55
2023-02-14T07:36:18.659Z,3.60
2023-02-14T07:38:45.267Z,3.53
2023-02-14T07:41:11.744Z,3.48
2023-02-14T07:43:39.622Z,3.35
2023-02-14T07:46:06.783Z,3.30
2023-02-14T07:48:34.479Z,3.25
2023-02-14T07:51:01.660Z,3.24
2023-02-14T07:53:28.431Z,3.22
2023-02-14T07:55:54.951Z,3.47
2023-02-14T07:58:21.415Z,3.69
2023-02-14T08:00:47.931Z,3.87
2023-02-14T08:03:14.907Z,3.94
2023-02-14T08:05:42.117Z,4.14
2023-02-14T08:08:08.911Z,4.28
2023-02-14T08:10:35.417Z,4.42
2023-02-14T08:13:02.207Z,4.48
2023-02-14T08:15:52.554Z,4.58
2023-02-14T08:18:21.157Z,4.66
2023-02-14T08:20:51.085Z,4.65
2023-02-14T08:23:18.761Z,4.56
2023-02-14T08:25:46.179Z,4.51
2023-02-14T08:28:13.793Z,4.58
2023-02-14T08:30:40.983Z,4.65
2023-02-14T08:33:07.521Z,4.81
2023-02-14T08:35:34.680Z,4.88
2023-02-14T08:38:01.251Z,4.92
2023-02-14T08:40:28.638Z,5.02
2023-02-14T08:42:55.120Z,5.19
2023-02-14T08:45:21.886Z,5.24
2023-02-14T08:47:48.383Z,5.38
2023-02-14T08:50:17.366Z,5.48
2023-02-14T08:52:44.454Z,5.53
2023-02-14T08:55:12.639Z,5.62
2023-02-14T08:57:40.082Z,5.66
2023-02-14T09:00:07.571Z,5.78
2023-02-14T09:02:34.491Z,5.86
2023-02-14T09:05:01.178Z,5.85
2023-02-14T09:07:27.795Z,6.02
2023-02-14T09:09:54.405Z,6.14
2023-02-14T09:12:20.977Z,6.24
2023-02-14T09:14:47.452Z,6.33
2023-02-14T09:17:15.069Z,6.46
2023-02-14T09:19:42.451Z,6.50
2023-02-14T09:22:10.301Z,6.58
2023-02-14T09:24:38.410Z,6.66
2023-02-14T09:27:05.916Z,6.77
2023-02-14T09:29:32.524Z,6.86
2023-02-14T09:32:01.211Z,6.93
2023-02-14T09:34:29.356Z,6.95
2023-02-14T09:36:55.865Z,7.06
2023-02-14T09:39:22.542Z,7.09
2023-02-14T09:42:13.564Z,7.03
2023-02-14T09:44:41.557Z,7.12
2023-02-14T09:47:40.236Z,7.29
2023-02-14T09:50:13.892Z,7.44
2023-02-14T09:52:40.472Z,7.55
2023-02-14T09:55:13.435Z,7.64
2023-02-14T09:58:06.044Z,7.70
2023-02-14T10:00:38.591Z,7.68
2023-02-14T10:03:40.416Z,7.70
2023-02-14T10:06:15.940Z,7.75
2023-02-14T10:09:09.360Z,7.81
2023-02-14T10:11:36.332Z,7.86
2023-02-14T10:14:16.772Z,7.92
2023-02-14T10:16:49.144Z,8.13
2023-02-14T10:19:22.422Z,8.23
2023-02-14T10:21:56.977Z,8.39
2023-02-14T10:24:23.440Z,8.48
2023-02-14T10:26:50.903Z,8.58
2023-02-14T10:29:19.659Z,8.62
2023-02-14T10:31:57.664Z,8.70
2023-02-14T10:34:35.547Z,8.76
2023-02-14T10:37:34.734Z,8.90
2023-02-14T10:40:17.515Z,8.96
2023-02-14T10:43:21.834Z,8.98
2023-02-14T10:46:13.496Z,9.14
2023-02-14T10:48:52.092Z,9.26
2023-02-14T10:51:33.513Z,9.35
2023-02-14T10:54:18.660Z,9.40
2023-02-14T10:56:51.175Z,9.45
2023-02-14T10:59:26.982Z,9.44
2023-02-14T11:01:55.296Z,9.38
2023-02-14T11:04:24.860Z,9.49
2023-02-14T11:06:52.659Z,9.66
2023-02-14T11:09:20.388Z,9.74
2023-02-14T11:11:59.384Z,9.76
2023-02-14T11:14:28.219Z,9.83
2023-02-14T11:16:55.835Z,9.83
2023-02-14T11:19:28.379Z,9.88
2023-02-14T11:21:57.658Z,9.99
2023-02-14T11:24:36.082Z,10.01
2023-02-14T11:27:17.238Z,10.15
2023-02-14T11:29:48.075Z,10.30
2023-02-14T11:32:22.670Z,10.42
2023-02-14T11:35:19.611Z,10.48
2023-02-14T11:37:50.988Z,10.60
2023-02-14T11:40:43.587Z,10.62
2023-02-14T11:43:14.560Z,10.64
2023-02-14T11:45:46.195Z,10.66
2023-02-14T11:48:31.543Z,10.73
2023-02-14T11:51:15.014Z,10.83
2023-02-14T11:53:45.022Z,10.98
2023-02-14T11:56:12.714Z,11.04
2023-02-14T11:58:46.244Z,11.12
2023-02-14T12:01:22.025Z,11.14
2023-02-14T12:03:49.646Z,11.30
2023-02-14T12:06:28.575Z,11.40
2023-02-14T12:09:11.729Z,11.43
2023-02-14T12:11:38.790Z,11.60
2023-02-14T12:14:05.849Z,11.81
2023-02-14T12:16:47.405Z,11.95
2023-02-14T12:19:20.007Z,12.07
2023-02-14T12:22:03.434Z,12.08
2023-02-14T12:24:35.161Z,12.16
2023-02-14T12:27:21.073Z,12.28
2023-02-14T12:29:54.433Z,12.28
2023-02-14T12:32:29.957Z,12.26
2023-02-14T12:35:06.543Z,12.43
2023-02-14T12:38:04.302Z,12.60
2023-02-14T12:41:05.852Z,12.77
2023-02-14T12:43:48.021Z,12.82
2023-02-14T12:49:00.929Z,12.91
2023-02-14T12:51:36.178Z,13.08
2023-02-14T12:54:08.360Z,13.26
2023-02-14T12:56:56.124Z,13.32
2023-02-14T12:59:34.135Z,13.22
2023-02-14T13:02:22.791Z,13.31
2023-02-14T13:04:52.254Z,13.23
2023-02-14T13:07:54.788Z,13.20
2023-02-14T13:10:30.566Z,13.18
2023-02-14T13:13:31.308Z,13.30
2023-02-14T13:15:58.415Z,13.52
2023-02-14T13:19:05.411Z,13.46
2023-02-14T13:21:37.101Z,13.40
2023-02-14T13:24:20.492Z,13.49
2023-02-14T13:26:53.713Z,13.65
2023-02-14T13:29:27.460Z,13.77
2023-02-14T13:31:58.734Z,13.80
2023-02-14T13:34:32.818Z,13.95
2023-02-14T13:37:02.488Z,14.12
2023-02-14T13:39:37.943Z,14.06
2023-02-14T13:42:06.388Z,14.15
2023-02-14T13:44:38.694Z,14.26
2023-02-14T13:47:07.693Z,14.36
2023-02-14T13:49:40.616Z,14.55
2023-02-14T13:52:07.176Z,14.59
2023-02-14T13:54:47.090Z,14.73
2023-02-14T13:57:28.133Z,14.89
2023-02-14T14:00:16.423Z,14.97
2023-02-14T14:03:03.826Z,14.91
2023-02-14T14:05:30.434Z,15.20
2023-02-14T14:08:16.808Z,15.67
2023-02-14T14:10:49.000Z,15.76
2023-02-14T14:13:40.329Z,15.81
2023-02-14T14:16:27.928Z,15.97
2023-02-14T14:19:09.528Z,16.57
2023-02-14T14:21:44.609Z,16.68
2023-02-14T14:24:24.202Z,16.83
2023-02-14T14:27:03.459Z,16.43
2023-02-14T14:29:36.843Z,16.63
2023-02-14T14:32:10.333Z,16.85
2023-02-14T14:34:37.352Z,17.00
2023-02-14T14:37:16.036Z,17.41
2023-02-14T14:39:42.590Z,17.43
2023-02-14T14:42:18.396Z,17.98
2023-02-14T14:45:04.324Z,18.39
2023-02-14T14:47:45.454Z,18.75
2023-02-14T14:50:18.726Z,18.73
2023-02-14T14:52:51.376Z,19.09
2023-02-14T14:55:39.446Z,18.93
2023-02-14T14:58:27.424Z,19.19
2023-02-14T15:00:53.899Z,19.68
2023-02-14T15:03:25.341Z,19.98
2023-02-14T15:06:01.994Z,20.28
2023-02-14T15:08:36.626Z,20.42
2023-02-14T15:11:08.118Z,19.82
2023-02-14T15:13:54.950Z,19.75
2023-02-14T15:16:40.602Z,19.79
2023-02-14T15:19:10.630Z,19.23
2023-02-14T15:21:40.269Z,19.32
2023-02-14T15:24:13.252Z,18.87
2023-02-14T15:26:42.706Z,18.97
2023-02-14T15:29:22.411Z,19.14
2023-02-14T15:31:49.925Z,19.47
2023-02-14T15:34:23.623Z,19.10
2023-02-14T15:36:56.580Z,17.98
2023-02-14T15:39:30.019Z,17.37
2023-02-14T15:41:56.563Z,16.98
2023-02-14T15:44:25.330Z,16.75
2023-02-14T15:46:59.720Z,16.43
2023-02-14T15:49:37.492Z,16.31
2023-02-14T15:52:06.316Z,16.61
2023-02-14T15:54:39.285Z,16.69
2023-02-14T15:57:16.515Z,16.40
2023-02-14T15:59:43.282Z,16.10
2023-02-14T16:02:37.770Z,15.70
2023-02-14T16:05:17.720Z,15.45
2023-02-14T16:08:04.049Z,15.18
2023-02-14T16:10:35.641Z,15.08
2023-02-14T16:13:06.585Z,14.98
2023-02-14T16:15:37.799Z,14.76
2023-02-14T16:18:18.111Z,14.53
2023-02-14T16:20:48.899Z,14.30
2023-02-14T16:23:27.258Z,14.22
2023-02-14T16:25:57.224Z,14.10
2023-02-14T16:28:27.845Z,13.92
2023-02-14T16:30:56.871Z,13.72
2023-02-14T16:33:26.617Z,13.67
2023-02-14T16:35:54.534Z,13.66
2023-02-14T16:38:21.824Z,13.66
2023-02-14T16:40:51.608Z,13.50
2023-02-14T16:43:20.231Z,13.25
2023-02-14T16:45:47.774Z,13.03
2023-02-14T16:48:15.918Z,12.93
2023-02-14T16:50:43.360Z,12.81
2023-02-14T16:53:28.856Z,12.72
2023-02-14T16:55:57.260Z,12.58
2023-02-14T16:58:29.243Z,12.35
2023-02-14T17:00:58.590Z,12.18
2023-02-14T17:03:25.529Z,12.08
2023-02-14T17:05:52.618Z,11.99
2023-02-14T17:08:19.186Z,11.88
2023-02-14T17:10:48.586Z,11.85
2023-02-14T17:13:19.842Z,11.67
2023-02-14T17:15:46.772Z,11.47
2023-02-14T17:18:17.747Z,11.37
2023-02-14T17:20:44.260Z,11.31
2023-02-14T17:23:10.776Z,11.31
2023-02-14T17:25:37.427Z,11.24
2023-02-14T17:28:04.194Z,11.27
2023-02-14T17:30:30.993Z,11.29
2023-02-14T17:32:57.596Z,11.12
2023-02-14T17:35:24.189Z,11.06
2023-02-14T17:37:50.740Z,10.98
2023-02-14T17:40:17.307Z,10.88
2023-02-14T17:42:43.840Z,10.91
2023-02-14T17:45:11.768Z,11.00
2023-02-14T17:47:40.504Z,10.95
2023-02-14T17:50:07.759Z,10.64
2023-02-14T17:52:34.435Z,10.39
2023-02-14T17:55:01.023Z,10.27
2023-02-14T17:57:27.499Z,10.17
2023-02-14T17:59:54.025Z,10.25
2023-02-14T18:02:20.588Z,10.23
2023-02-14T18:04:48.397Z,10.03
2023-02-14T18:07:14.904Z,9.79
2023-02-14T18:09:41.497Z,9.74
2023-02-14T18:12:14.671Z,9.68
2023-02-14T18:14:41.815Z,9.72
2023-02-14T18:17:08.457Z,9.66
2023-02-14T18:19:34.966Z,9.65
2023-02-14T18:22:01.621Z,9.72
2023-02-14T18:24:28.149Z,9.59
2023-02-14T18:26:55.423Z,9.49
2023-02-14T18:29:22.686Z,9.45
2023-02-14T18:31:49.614Z,9.34
2023-02-14T18:34:16.188Z,9.17
2023-02-14T18:36:42.708Z,9.12
2023-02-14T18:39:09.764Z,9.18
2023-02-14T18:41:36.918Z,9.04
2023-02-14T18:44:03.630Z,8.76
2023-02-14T18:46:33.157Z,8.64
2023-02-14T18:48:59.743Z,8.65
2023-02-14T18:51:29.655Z,8.68
2023-02-14T18:53:58.999Z,8.65
2023-02-14T18:56:28.944Z,8.59
2023-02-14T18:59:00.983Z,8.40
2023-02-14T19:01:34.371Z,8.36
2023-02-14T19:04:01.320Z,8.41
2023-02-14T19:06:30.472Z,8.43
2023-02-14T19:08:58.074Z,8.47
2023-02-14T19:11:28.055Z,8.44
2023-02-14T19:13:57.717Z,8.44
2023-02-14T19:16:34.228Z,8.62
2023-02-14T19:19:02.697Z,8.37
2023-02-14T19:21:33.607Z,8.23
2023-02-14T19:24:00.999Z,8.00
2023-02-14T19:26:32.890Z,7.66
2023-02-14T19:29:02.247Z,7.61
2023-02-14T19:31:29.434Z,7.60
2023-02-14T19:33:56.613Z,7.54
2023-02-14T19:36:23.966Z,7.52
2023-02-14T19:38:52.766Z,7.60
2023-02-14T19:41:21.655Z,7.66
2023-02-14T19:43:49.059Z,7.67
2023-02-14T19:46:17.936Z,7.61
2023-02-14T19:48:45.219Z,7.71
2023-02-14T19:51:17.226Z,7.85
2023-02-14T19:53:43.987Z,8.04
2023-02-14T19:56:11.103Z,7.97
2023-02-14T19:58:37.731Z,7.75
2023-02-14T20:01:05.791Z,7.37
2023-02-14T20:03:32.763Z,7.29
2023-02-14T20:05:59.216Z,7.28
2023-02-14T20:08:25.675Z,7.20
2023-02-14T20:10:52.179Z,7.12
2023-02-14T20:13:18.676Z,7.28
2023-02-14T20:15:45.626Z,7.32
2023-02-14T20:18:12.207Z,7.34
2023-02-14T20:20:57.391Z,7.31
2023-02-14T20:23:23.912Z,7.17
2023-02-14T20:25:50.429Z,7.13
2023-02-14T20:28:16.863Z,7.15
2023-02-14T20:30:43.422Z,7.23
2023-02-14T20:33:10.016Z,7.22
2023-02-14T20:35:40.395Z,7.22
2023-02-14T20:38:07.726Z,7.14
2023-02-14T20:40:39.203Z,7.05
2023-02-14T20:43:06.036Z,6.95
2023-02-14T20:45:33.017Z,6.92
2023-02-14T20:48:04.001Z,6.94
2023-02-14T20:50:31.213Z,6.94
2023-02-14T20:52:58.311Z,6.70
2023-02-14T20:55:27.118Z,6.67
2023-02-14T20:57:54.009Z,6.66
2023-02-14T21:00:20.614Z,6.37
2023-02-14T21:02:47.119Z,6.18
2023-02-14T21:05:18.306Z,6.24
2023-02-14T21:07:44.797Z,6.33
2023-02-14T21:10:11.328Z,6.39
2023-02-14T21:12:38.652Z,6.42
2023-02-14T21:15:06.919Z,6.55
2023-02-14T21:17:33.882Z,6.57
2023-02-14T21:20:00.394Z,6.39
2023-02-14T21:22:26.910Z,6.37
2023-02-14T21:24:53.642Z,6.44
2023-02-14T21:27:20.112Z,6.38
2023-02-14T21:29:46.620Z,6.38
2023-02-14T21:32:13.283Z,6.43
2023-02-14T21:34:39.853Z,6.40
2023-02-14T21:37:06.438Z,6.48
2023-02-14T21:39:35.722Z,6.39
2023-02-14T21:42:02.426Z,6.35
2023-02-14T21:44:47.419Z,6.50
2023-02-14T21:47:14.241Z,6.55
2023-02-14T21:49:59.238Z,6.44
2023-02-14T21:52:25.731Z,6.14
2023-02-14T21:54:52.486Z,5.94
2023-02-14T21:57:19.057Z,5.71
2023-02-14T21:59:45.568Z,5.72
2023-02-14T22:02:12.448Z,5.87
2023-02-14T22:04:39.008Z,5.99
2023-02-14T22:07:05.816Z,5.93
2023-02-14T22:09:32.295Z,5.90
2023-02-14T22:11:58.806Z,5.79
2023-02-14T22:14:25.445Z,5.67
2023-02-14T22:16:51.985Z,5.46
2023-02-14T22:19:18.480Z,5.28
2023-02-14T22:21:45.235Z,5.32
2023-02-14T22:24:12.641Z,5.30
2023-02-14T22:26:40.852Z,5.37
2023-02-14T22:29:10.381Z,5.52
2023-02-14T22:31:42.713Z,5.60
2023-02-14T22:34:12.335Z,5.39
2023-02-14T22:36:39.200Z,5.27
2023-02-14T22:39:06.428Z,5.28
2023-02-14T22:41:37.719Z,5.20
2023-02-14T22:44:05.835Z,5.17
2023-02-14T22:46:33.128Z,5.31
2023-02-14T22:48:59.608Z,5.32
2023-02-14T22:51:35.356Z,5.29
2023-02-14T22:54:14.583Z,5.41
2023-02-14T22:56:49.169Z,5.44
2023-02-14T22:59:20.718Z,5.46
2023-02-14T23:01:48.980Z,5.58
2023-02-14T23:04:17.267Z,5.50
2023-02-14T23:06:44.231Z,5.40
2023-02-14T23:09:12.202Z,5.17
2023-02-14T23:11:41.031Z,5.00
2023-02-14T23:14:26.540Z,4.96
2023-02-14T23:17:11.302Z,5.02
2023-02-14T23:19:56.285Z,5.07
2023-02-14T23:22:26.761Z,5.00
2023-02-14T23:24:55.446Z,4.99
2023-02-14T23:27:24.244Z,4.94
2023-02-14T23:29:50.744Z,4.89
2023-02-14T23:32:17.397Z,5.04
2023-02-14T23:34:44.977Z,5.02
2023-02-14T23:37:13.563Z,5.04
2023-02-14T23:39:40.811Z,5.04
2023-02-14T23:42:10.460Z,5.06
2023-02-14T23:44:37.286Z,5.08
2023-02-14T23:47:06.768Z,5.20
2023-02-14T23:49:35.393Z,5.17
2023-02-14T23:52:03.382Z,5.07
2023-02-14T23:54:29.914Z,5.11
2023-02-14T23:56:57.516Z,4.99
2023-02-14T23:59:24.425Z,5.00
